createdAt,value
2023-10-29T00:00:46.200Z,11.14
2023-10-29T00:03:13.829Z,11.24
2023-10-29T00:05:41.536Z,11.25
2023-10-29T00:08:11.081Z,11.11
2023-10-29T00:10:38.597Z,11.26
2023-10-29T00:13:06.139Z,11.40
2023-10-29T00:15:33.683Z,11.44
2023-10-29T00:18:01.618Z,11.37
2023-10-29T00:20:29.375Z,11.52
2023-10-29T00:22:56.969Z,11.49
2023-10-29T00:25:25.771Z,11.48
2023-10-29T00:27:53.274Z,11.52
2023-10-29T00:30:20.745Z,11.61
2023-10-29T00:32:48.394Z,11.46
2023-10-29T00:35:16.155Z,11.60
2023-10-29T00:37:43.629Z,11.64
2023-10-29T00:40:11.652Z,11.68
2023-10-29T00:42:40.468Z,11.69
2023-10-29T00:45:08.903Z,11.71
2023-10-29T00:47:36.640Z,11.73
2023-10-29T00:50:05.135Z,11.73
2023-10-29T00:52:32.905Z,11.77
2023-10-29T00:55:00.406Z,11.68
2023-10-29T00:57:28.190Z,11.78
2023-10-29T00:59:58.159Z,11.78
2023-10-29T01:02:26.349Z,11.65
2023-10-29T01:04:54.022Z,11.83
2023-10-29T01:07:21.581Z,11.76
2023-10-29T01:09:49.542Z,11.83
2023-10-29T01:12:17.994Z,11.79
2023-10-29T01:14:46.362Z,11.84
2023-10-29T01:17:15.427Z,11.83
2023-10-29T01:19:42.973Z,11.79
2023-10-29T01:22:11.050Z,11.81
2023-10-29T01:24:39.826Z,11.85
2023-10-29T01:27:09.075Z,11.88
2023-10-29T01:29:36.778Z,11.91
2023-10-29T01:32:04.504Z,11.96
2023-10-29T01:34:33.300Z,11.90
2023-10-29T01:37:00.798Z,11.98
2023-10-29T01:39:29.010Z,11.98
2023-10-29T01:41:59.111Z,12.03
2023-10-29T01:44:26.924Z,12.01
2023-10-29T01:46:54.408Z,12.01
2023-10-29T01:49:21.899Z,12.09
2023-10-29T01:51:51.134Z,12.13
2023-10-29T01:54:18.646Z,12.14
2023-10-29T01:56:46.166Z,12.18
2023-10-29T01:59:15.733Z,12.19
2023-10-29T02:01:43.608Z,12.24
2023-10-29T02:04:11.684Z,12.08
2023-10-29T02:06:41.023Z,12.24
2023-10-29T02:09:11.519Z,12.25
2023-10-29T02:11:39.608Z,12.24
2023-10-29T02:14:07.356Z,12.29
2023-10-29T02:16:34.950Z,12.27
2023-10-29T02:19:02.504Z,12.33
2023-10-29T02:21:30.061Z,12.43
2023-10-29T02:24:02.327Z,12.35
2023-10-29T02:26:30.312Z,12.42
2023-10-29T02:28:57.878Z,12.46
2023-10-29T02:31:25.468Z,12.47
2023-10-29T02:33:53.002Z,12.41
2023-10-29T02:36:20.498Z,12.46
2023-10-29T02:38:48.015Z,12.37
2023-10-29T02:41:16.898Z,12.50
2023-10-29T02:43:44.411Z,12.37
2023-10-29T02:46:12.496Z,12.30
2023-10-29T02:48:40.209Z,12.46
2023-10-29T02:51:12.433Z,12.45
2023-10-29T02:53:40.064Z,12.45
2023-10-29T02:56:07.668Z,12.56
2023-10-29T02:58:36.512Z,12.48
2023-10-29T03:01:08.197Z,12.45
2023-10-29T03:03:36.558Z,12.46
2023-10-29T03:06:05.938Z,12.63
2023-10-29T03:08:33.484Z,12.30
2023-10-29T03:11:01.474Z,12.34
2023-10-29T03:13:29.438Z,12.45
2023-10-29T03:15:58.289Z,12.42
2023-10-29T03:18:25.947Z,12.39
2023-10-29T03:20:53.540Z,12.50
2023-10-29T03:23:21.117Z,12.45
2023-10-29T03:25:48.623Z,12.41
2023-10-29T03:28:16.115Z,12.38
2023-10-29T03:30:43.675Z,12.48
2023-10-29T03:33:12.678Z,12.50
2023-10-29T03:35:40.308Z,12.21
2023-10-29T03:38:08.961Z,12.46
2023-10-29T03:40:38.065Z,12.52
2023-10-29T03:43:05.610Z,12.51
2023-10-29T03:45:33.200Z,12.52
2023-10-29T03:48:00.790Z,12.56
2023-10-29T03:50:29.716Z,12.59
2023-10-29T03:52:57.233Z,12.68
2023-10-29T03:55:25.153Z,12.58
2023-10-29T03:57:52.692Z,12.69
2023-10-29T04:00:20.192Z,12.49
2023-10-29T04:02:48.957Z,12.67
2023-10-29T04:05:17.304Z,12.71
2023-10-29T04:07:46.138Z,12.68
2023-10-29T04:10:13.616Z,12.74
2023-10-29T04:12:41.200Z,12.77
2023-10-29T04:15:09.823Z,12.79
2023-10-29T04:17:37.518Z,12.72
2023-10-29T04:20:06.889Z,12.81
2023-10-29T04:22:35.057Z,12.83
2023-10-29T04:25:03.910Z,12.81
2023-10-29T04:27:31.412Z,12.84
2023-10-29T04:29:59.401Z,12.88
2023-10-29T04:32:27.098Z,12.88
2023-10-29T04:34:54.602Z,12.95
2023-10-29T04:37:23.843Z,12.93
2023-10-29T04:39:52.132Z,12.94
2023-10-29T04:42:20.975Z,13.00
2023-10-29T04:44:49.061Z,12.86
2023-10-29T04:47:18.001Z,12.83
2023-10-29T04:49:45.999Z,12.85
2023-10-29T04:52:13.521Z,12.86
2023-10-29T04:54:43.525Z,12.89
2023-10-29T04:57:11.066Z,12.94
2023-10-29T04:59:39.914Z,13.02
2023-10-29T05:02:07.561Z,12.97
2023-10-29T05:04:35.061Z,12.90
2023-10-29T05:07:02.684Z,13.05
2023-10-29T05:09:30.184Z,13.10
2023-10-29T05:11:57.739Z,13.03
2023-10-29T05:14:25.269Z,13.10
2023-10-29T05:16:54.221Z,13.15
2023-10-29T05:19:22.361Z,13.24
2023-10-29T05:21:51.106Z,13.22
2023-10-29T05:24:18.765Z,13.30
2023-10-29T05:26:46.314Z,13.31
2023-10-29T05:29:13.853Z,13.31
2023-10-29T05:31:41.445Z,13.35
2023-10-29T05:34:10.320Z,13.45
2023-10-29T05:36:37.804Z,13.44
2023-10-29T05:39:08.050Z,13.46
2023-10-29T05:41:35.606Z,13.42
2023-10-29T05:44:03.200Z,13.47
2023-10-29T05:46:30.811Z,13.50
2023-10-29T05:48:58.324Z,13.52
2023-10-29T05:51:27.190Z,13.47
2023-10-29T05:53:54.718Z,13.52
2023-10-29T05:56:22.289Z,13.49
2023-10-29T05:58:49.867Z,13.55
2023-10-29T06:01:17.430Z,13.52
2023-10-29T06:03:45.169Z,13.60
2023-10-29T06:06:12.852Z,13.62
2023-10-29T06:08:41.715Z,13.53
2023-10-29T06:11:09.217Z,13.56
2023-10-29T06:13:36.757Z,13.49
2023-10-29T06:16:09.033Z,13.56
2023-10-29T06:18:36.852Z,13.63
2023-10-29T06:21:04.948Z,13.66
2023-10-29T06:23:32.606Z,13.71
2023-10-29T06:26:01.462Z,13.85
2023-10-29T06:28:28.945Z,13.78
2023-10-29T06:30:56.412Z,13.82
2023-10-29T06:33:24.220Z,13.84
2023-10-29T06:35:51.853Z,13.91
2023-10-29T06:38:19.378Z,13.90
2023-10-29T06:40:46.871Z,13.85
2023-10-29T06:43:15.673Z,13.92
2023-10-29T06:45:43.555Z,13.92
2023-10-29T06:48:11.121Z,13.86
2023-10-29T06:50:38.724Z,13.96
2023-10-29T06:53:06.890Z,13.99
2023-10-29T06:55:34.441Z,13.96
2023-10-29T06:58:01.903Z,14.05
2023-10-29T07:00:32.805Z,14.13
2023-10-29T07:03:00.592Z,14.15
2023-10-29T07:05:28.500Z,14.02
2023-10-29T07:07:56.400Z,14.09
2023-10-29T07:10:24.361Z,13.98
2023-10-29T07:12:54.149Z,14.13
2023-10-29T07:15:21.681Z,14.13
2023-10-29T07:17:50.616Z,14.21
2023-10-29T07:20:18.102Z,14.09
2023-10-29T07:22:45.843Z,14.15
2023-10-29T07:25:13.527Z,14.14
2023-10-29T07:27:41.060Z,14.19
2023-10-29T07:30:10.369Z,14.28
2023-10-29T07:32:37.997Z,14.18
2023-10-29T07:35:07.410Z,14.27
2023-10-29T07:37:34.882Z,14.29
2023-10-29T07:40:02.376Z,14.39
2023-10-29T07:42:29.945Z,14.33
2023-10-29T07:44:57.506Z,14.30
2023-10-29T07:47:25.047Z,14.41
2023-10-29T07:49:53.118Z,14.33
2023-10-29T07:52:21.920Z,14.59
2023-10-29T07:54:49.599Z,14.62
2023-10-29T07:57:17.163Z,14.56
2023-10-29T07:59:44.934Z,14.38
2023-10-29T08:02:13.454Z,14.44
2023-10-29T08:04:40.938Z,14.43
2023-10-29T08:07:08.541Z,14.45
2023-10-29T08:09:37.370Z,14.27
2023-10-29T08:12:05.577Z,14.48
2023-10-29T08:14:33.607Z,14.44
2023-10-29T08:17:01.624Z,14.22
2023-10-29T08:19:29.125Z,14.37
2023-10-29T08:21:57.595Z,14.50
2023-10-29T08:24:25.402Z,14.42
2023-10-29T08:26:55.160Z,14.60
2023-10-29T08:29:22.685Z,14.49
2023-10-29T08:31:50.333Z,14.52
2023-10-29T08:34:17.868Z,14.53
2023-10-29T08:36:45.377Z,14.58
2023-10-29T08:39:14.262Z,14.64
2023-10-29T08:41:41.862Z,14.75
2023-10-29T08:44:10.772Z,14.61
2023-10-29T08:46:38.281Z,14.73
2023-10-29T08:49:05.780Z,14.68
2023-10-29T08:51:33.324Z,14.65
2023-10-29T08:54:03.705Z,14.56
2023-10-29T08:56:31.638Z,14.77
2023-10-29T08:58:59.184Z,14.82
2023-10-29T09:01:28.058Z,14.80
2023-10-29T09:03:56.674Z,14.91
2023-10-29T09:06:25.419Z,14.87
2023-10-29T09:08:53.744Z,14.91
2023-10-29T09:11:21.468Z,14.86
2023-10-29T09:13:49.241Z,14.64
2023-10-29T09:16:17.021Z,14.63
2023-10-29T09:18:45.923Z,14.58
2023-10-29T09:21:13.485Z,14.73
2023-10-29T09:23:41.014Z,14.81
2023-10-29T09:26:09.279Z,14.92
2023-10-29T09:28:36.777Z,15.05
2023-10-29T09:31:05.380Z,15.09
2023-10-29T09:33:32.933Z,15.10
2023-10-29T09:36:03.774Z,15.25
2023-10-29T09:38:31.296Z,15.05
2023-10-29T09:40:59.017Z,15.15
2023-10-29T09:43:29.140Z,15.09
2023-10-29T09:45:57.015Z,15.01
2023-10-29T09:48:26.458Z,15.10
2023-10-29T09:50:55.090Z,15.25
2023-10-29T09:53:25.089Z,15.51
2023-10-29T09:55:53.434Z,15.68
2023-10-29T09:58:23.577Z,15.63
2023-10-29T10:00:51.471Z,15.77
2023-10-29T10:03:19.085Z,15.70
2023-10-29T10:05:48.421Z,15.76
2023-10-29T10:08:15.973Z,15.78
2023-10-29T10:10:48.103Z,15.98
2023-10-29T10:13:16.773Z,16.24
2023-10-29T10:15:45.001Z,16.47
2023-10-29T10:18:14.916Z,16.58
2023-10-29T10:20:43.856Z,16.59
2023-10-29T10:23:12.674Z,16.63
2023-10-29T10:25:41.247Z,16.58
2023-10-29T10:28:10.112Z,16.38
2023-10-29T10:30:39.659Z,16.53
2023-10-29T10:33:12.588Z,16.41
2023-10-29T10:35:41.792Z,16.36
2023-10-29T10:38:10.110Z,16.32
2023-10-29T10:40:39.027Z,16.00
2023-10-29T10:43:06.900Z,16.01
2023-10-29T10:45:37.954Z,15.79
2023-10-29T10:48:07.767Z,16.05
2023-10-29T10:50:36.609Z,15.98
2023-10-29T10:53:05.083Z,15.92
2023-10-29T10:58:04.704Z,15.70
2023-10-29T11:00:33.875Z,15.74
2023-10-29T11:03:05.487Z,15.70
2023-10-29T11:05:39.717Z,15.79
2023-10-29T11:08:08.501Z,15.73
2023-10-29T11:10:36.097Z,15.80
2023-10-29T11:13:19.234Z,15.89
2023-10-29T11:15:48.370Z,15.80
2023-10-29T11:18:28.328Z,16.06
2023-10-29T11:21:00.733Z,16.17
2023-10-29T11:23:30.123Z,16.04
2023-10-29T11:26:21.658Z,16.22
2023-10-29T11:28:49.913Z,15.94
2023-10-29T11:31:18.985Z,16.24
2023-10-29T11:33:49.156Z,16.22
2023-10-29T11:36:32.847Z,16.33
2023-10-29T11:39:37.184Z,16.32
2023-10-29T11:42:26.942Z,16.24
2023-10-29T11:45:37.788Z,16.30
2023-10-29T11:48:12.551Z,16.47
2023-10-29T11:50:43.189Z,16.35
2023-10-29T11:53:25.579Z,16.34
2023-10-29T11:55:54.333Z,16.19
2023-10-29T11:58:23.507Z,16.29
2023-10-29T12:00:51.476Z,16.21
2023-10-29T12:03:20.948Z,16.18
2023-10-29T12:05:53.548Z,16.29
2023-10-29T12:08:21.571Z,16.00
2023-10-29T12:10:50.680Z,16.08
2023-10-29T12:13:19.802Z,16.12
2023-10-29T12:15:48.843Z,16.07
2023-10-29T12:18:23.028Z,15.73
2023-10-29T12:20:51.293Z,15.81
2023-10-29T12:23:20.356Z,15.87
2023-10-29T12:25:47.937Z,15.67
2023-10-29T12:28:16.073Z,15.71
2023-10-29T12:30:47.576Z,15.91
2023-10-29T12:33:22.257Z,16.00
2023-10-29T12:35:51.892Z,15.94
2023-10-29T12:38:22.272Z,15.96
2023-10-29T12:41:08.229Z,15.80
2023-10-29T12:43:41.055Z,15.99
2023-10-29T12:46:10.382Z,15.82
2023-10-29T12:48:57.887Z,15.92
2023-10-29T12:51:27.171Z,16.12
2023-10-29T12:54:10.336Z,16.16
2023-10-29T12:56:50.726Z,16.00
2023-10-29T12:59:18.570Z,16.08
2023-10-29T13:01:53.360Z,16.10
2023-10-29T13:04:21.605Z,16.11
2023-10-29T13:06:49.086Z,15.99
2023-10-29T13:09:21.272Z,15.98
2023-10-29T13:11:49.725Z,16.01
2023-10-29T13:14:17.312Z,15.95
2023-10-29T13:16:45.016Z,15.96
2023-10-29T13:19:13.398Z,16.02
2023-10-29T13:21:42.131Z,15.98
2023-10-29T13:24:10.057Z,16.06
2023-10-29T13:26:39.608Z,16.08
2023-10-29T13:29:07.752Z,16.08
2023-10-29T13:31:35.670Z,16.00
2023-10-29T13:34:03.228Z,15.97
2023-10-29T13:36:30.821Z,15.86
2023-10-29T13:38:58.392Z,15.93
2023-10-29T13:41:25.953Z,15.85
2023-10-29T13:43:54.942Z,15.84
2023-10-29T13:46:24.012Z,15.87
2023-10-29T13:48:54.169Z,15.70
2023-10-29T13:51:22.317Z,15.89
2023-10-29T13:53:50.470Z,15.63
2023-10-29T13:56:18.704Z,15.71
2023-10-29T13:58:47.080Z,15.59
2023-10-29T14:01:20.436Z,15.64
2023-10-29T14:03:48.545Z,15.66
2023-10-29T14:06:16.236Z,15.62
2023-10-29T14:08:45.119Z,15.71
2023-10-29T14:11:14.859Z,15.68
2023-10-29T14:13:46.441Z,15.79
2023-10-29T14:16:15.216Z,15.71
2023-10-29T14:18:45.520Z,15.50
2023-10-29T14:21:13.648Z,15.65
2023-10-29T14:23:43.062Z,15.55
2023-10-29T14:26:10.769Z,15.49
2023-10-29T14:28:38.405Z,15.74
2023-10-29T14:31:05.985Z,15.70
2023-10-29T14:33:33.599Z,15.80
2023-10-29T14:36:02.912Z,15.96
2023-10-29T14:38:31.168Z,15.94
2023-10-29T14:40:59.929Z,16.06
2023-10-29T14:43:27.791Z,16.03
2023-10-29T14:45:57.002Z,16.03
2023-10-29T14:48:24.559Z,16.02
2023-10-29T14:50:53.025Z,15.87
2023-10-29T14:53:21.956Z,15.95
2023-10-29T14:55:49.816Z,15.96
2023-10-29T14:58:17.890Z,15.86
2023-10-29T15:00:46.310Z,15.87
2023-10-29T15:03:14.646Z,15.87
2023-10-29T15:05:42.413Z,15.84
2023-10-29T15:08:10.021Z,15.62
2023-10-29T15:10:38.942Z,15.64
2023-10-29T15:13:06.742Z,15.68
2023-10-29T15:15:35.093Z,15.62
2023-10-29T15:18:02.681Z,15.61
2023-10-29T15:20:31.391Z,15.55
2023-10-29T15:23:02.294Z,15.39
2023-10-29T15:25:31.042Z,15.44
2023-10-29T15:28:00.070Z,15.41
2023-10-29T15:30:27.835Z,15.41
2023-10-29T15:32:55.452Z,15.42
2023-10-29T15:35:23.086Z,15.35
2023-10-29T15:37:50.583Z,15.28
2023-10-29T15:40:18.195Z,15.28
2023-10-29T15:42:45.681Z,15.32
2023-10-29T15:45:15.001Z,15.24
2023-10-29T15:47:42.643Z,15.25
2023-10-29T15:50:12.631Z,15.13
2023-10-29T15:52:40.356Z,15.33
2023-10-29T15:55:09.154Z,15.31
2023-10-29T15:57:36.794Z,15.13
2023-10-29T16:00:06.177Z,15.21
2023-10-29T16:02:35.041Z,15.20
2023-10-29T16:05:03.192Z,15.20
2023-10-29T16:07:30.727Z,15.07
2023-10-29T16:09:58.255Z,15.20
2023-10-29T16:12:25.993Z,15.06
2023-10-29T16:14:54.062Z,15.22
2023-10-29T16:17:21.581Z,15.17
2023-10-29T16:19:50.406Z,15.18
2023-10-29T16:22:17.930Z,15.16
2023-10-29T16:24:45.444Z,15.28
2023-10-29T16:27:13.022Z,15.20
2023-10-29T16:29:40.700Z,15.22
2023-10-29T16:32:08.361Z,15.13
2023-10-29T16:34:35.918Z,15.15
2023-10-29T16:37:05.197Z,15.22
2023-10-29T16:39:32.719Z,15.06
2023-10-29T16:42:01.292Z,15.02
2023-10-29T16:44:31.200Z,15.15
2023-10-29T16:46:59.799Z,15.12
2023-10-29T16:49:27.336Z,14.98
2023-10-29T16:51:55.919Z,15.03
2023-10-29T16:54:24.942Z,14.94
2023-10-29T16:56:52.635Z,15.07
2023-10-29T16:59:20.676Z,15.01
2023-10-29T17:01:49.028Z,14.98
2023-10-29T17:04:17.008Z,15.06
2023-10-29T17:06:44.598Z,15.11
2023-10-29T17:09:12.163Z,15.10
2023-10-29T17:11:41.203Z,15.13
2023-10-29T17:14:09.058Z,15.20
2023-10-29T17:16:37.040Z,15.22
2023-10-29T17:19:05.299Z,15.14
2023-10-29T17:21:33.056Z,15.16
2023-10-29T17:24:00.932Z,15.16
2023-10-29T17:26:28.558Z,15.17
2023-10-29T17:31:26.349Z,15.17
2023-10-29T17:33:54.094Z,15.28
2023-10-29T17:36:21.675Z,15.35
2023-10-29T17:38:49.228Z,15.29
2023-10-29T17:41:18.572Z,15.30
2023-10-29T17:43:47.313Z,15.32
2023-10-29T17:46:17.161Z,15.29
2023-10-29T17:48:46.088Z,15.43
2023-10-29T17:51:14.093Z,15.40
2023-10-29T17:53:45.351Z,15.46
2023-10-29T17:56:13.013Z,15.44
2023-10-29T17:58:41.843Z,15.45
2023-10-29T18:01:09.417Z,15.54
2023-10-29T18:03:38.836Z,15.49
2023-10-29T18:06:16.355Z,15.40
2023-10-29T18:08:44.979Z,15.42
2023-10-29T18:11:13.907Z,15.35
2023-10-29T18:13:41.533Z,15.39
2023-10-29T18:16:09.676Z,15.44
2023-10-29T18:18:38.862Z,15.39
2023-10-29T18:21:06.450Z,15.29
2023-10-29T18:23:33.993Z,15.34
2023-10-29T18:26:02.034Z,15.31
2023-10-29T18:28:29.562Z,15.29
2023-10-29T18:30:57.092Z,15.20
2023-10-29T18:33:27.410Z,15.25
2023-10-29T18:35:57.208Z,15.26
2023-10-29T18:38:24.805Z,15.28
2023-10-29T18:40:56.086Z,15.26
2023-10-29T18:43:25.716Z,15.42
2023-10-29T18:45:53.405Z,15.32
2023-10-29T18:48:21.020Z,15.26
2023-10-29T18:50:48.967Z,15.35
2023-10-29T18:53:17.801Z,15.39
2023-10-29T18:55:45.288Z,15.26
2023-10-29T18:58:12.770Z,15.27
2023-10-29T19:00:40.388Z,15.25
2023-10-29T19:03:08.080Z,15.28
2023-10-29T19:05:35.887Z,15.23
2023-10-29T19:08:04.552Z,15.33
2023-10-29T19:10:34.097Z,15.34
2023-10-29T19:13:01.584Z,15.19
2023-10-29T19:15:30.299Z,15.32
2023-10-29T19:17:57.949Z,15.22
2023-10-29T19:20:26.000Z,15.34
2023-10-29T19:22:54.530Z,15.33
2023-10-29T19:25:22.435Z,15.26
2023-10-29T19:27:51.322Z,15.20
2023-10-29T19:30:18.952Z,15.36
2023-10-29T19:32:50.006Z,14.95
2023-10-29T19:35:17.579Z,15.17
2023-10-29T19:37:46.100Z,15.22
2023-10-29T19:40:14.500Z,14.72
2023-10-29T19:42:42.013Z,14.96
2023-10-29T19:45:11.328Z,15.05
2023-10-29T19:47:40.084Z,14.76
2023-10-29T19:50:09.553Z,14.98
2023-10-29T19:52:37.069Z,14.92
2023-10-29T19:55:06.016Z,14.88
2023-10-29T19:57:34.034Z,15.04
2023-10-29T20:00:01.588Z,15.01
2023-10-29T20:02:31.079Z,15.07
2023-10-29T20:04:58.605Z,14.91
2023-10-29T20:07:26.168Z,14.96
2023-10-29T20:09:53.983Z,14.98
2023-10-29T20:12:21.754Z,14.97
2023-10-29T20:14:50.113Z,14.33
2023-10-29T20:17:17.656Z,14.47
2023-10-29T20:19:46.592Z,14.69
2023-10-29T20:22:14.462Z,14.78
2023-10-29T20:24:42.000Z,14.69
2023-10-29T20:27:09.677Z,14.41
2023-10-29T20:29:37.217Z,14.60
2023-10-29T20:32:06.480Z,14.62
2023-10-29T20:34:34.097Z,14.35
2023-10-29T20:37:03.454Z,14.36
2023-10-29T20:39:30.965Z,14.40
2023-10-29T20:41:58.928Z,14.42
2023-10-29T20:44:26.490Z,14.43
2023-10-29T20:46:53.997Z,14.40
2023-10-29T20:49:21.494Z,14.11
2023-10-29T20:51:49.024Z,14.30
2023-10-29T20:54:17.967Z,14.16
2023-10-29T20:56:45.444Z,13.84
2023-10-29T20:59:12.982Z,14.05
2023-10-29T21:01:40.631Z,14.28
2023-10-29T21:04:08.228Z,14.32
2023-10-29T21:06:36.027Z,14.37
2023-10-29T21:09:06.949Z,14.43
2023-10-29T21:11:36.233Z,14.52
2023-10-29T21:14:03.798Z,14.37
2023-10-29T21:16:31.622Z,14.53
2023-10-29T21:18:59.320Z,14.62
2023-10-29T21:21:27.335Z,14.60
2023-10-29T21:23:55.986Z,14.63
2023-10-29T21:26:23.682Z,14.55
2023-10-29T21:28:52.577Z,14.54
2023-10-29T21:31:21.057Z,14.51
2023-10-29T21:33:48.725Z,14.43
2023-10-29T21:36:16.347Z,14.41
2023-10-29T21:38:46.418Z,14.42
2023-10-29T21:41:15.409Z,14.31
2023-10-29T21:43:43.762Z,14.33
2023-10-29T21:46:12.999Z,14.40
2023-10-29T21:48:40.559Z,14.32
2023-10-29T21:51:08.262Z,14.26
2023-10-29T21:53:36.455Z,14.28
2023-10-29T21:56:05.762Z,14.20
2023-10-29T21:58:33.955Z,14.18
2023-10-29T22:01:01.944Z,14.13
2023-10-29T22:03:33.111Z,14.16
2023-10-29T22:06:03.161Z,14.14
2023-10-29T22:08:30.781Z,14.02
2023-10-29T22:10:59.781Z,13.98
2023-10-29T22:13:27.981Z,13.90
2023-10-29T22:15:56.152Z,13.76
2023-10-29T22:18:23.710Z,13.80
2023-10-29T22:21:00.367Z,13.76
2023-10-29T22:23:28.143Z,13.80
2023-10-29T22:25:55.653Z,13.77
2023-10-29T22:28:24.005Z,13.57
2023-10-29T22:30:52.135Z,13.57
2023-10-29T22:33:19.998Z,13.45
2023-10-29T22:35:47.546Z,13.47
2023-10-29T22:38:16.352Z,13.29
2023-10-29T22:40:43.852Z,13.30
2023-10-29T22:43:11.976Z,13.32
2023-10-29T22:45:39.809Z,13.07
2023-10-29T22:48:07.449Z,13.29
2023-10-29T22:50:34.978Z,12.98
2023-10-29T22:53:02.488Z,12.96
2023-10-29T22:55:31.313Z,13.06
2023-10-29T22:57:59.664Z,12.98
2023-10-29T23:00:27.199Z,13.00
2023-10-29T23:02:55.546Z,13.12
2023-10-29T23:05:23.202Z,13.04
2023-10-29T23:07:50.749Z,13.01
2023-10-29T23:10:18.273Z,13.13
2023-10-29T23:12:47.114Z,13.27
2023-10-29T23:15:14.786Z,13.20
2023-10-29T23:17:42.329Z,13.23
2023-10-29T23:20:11.323Z,13.30
2023-10-29T23:22:38.930Z,13.37
2023-10-29T23:25:07.832Z,13.28
2023-10-29T23:27:35.616Z,13.48
2023-10-29T23:30:05.759Z,13.28
2023-10-29T23:32:33.341Z,13.44
2023-10-29T23:35:00.904Z,13.41
2023-10-29T23:37:28.697Z,13.53
2023-10-29T23:39:56.267Z,13.61
2023-10-29T23:42:24.266Z,13.45
2023-10-29T23:44:51.770Z,13.52
2023-10-29T23:47:20.700Z,13.60
2023-10-29T23:49:48.788Z,13.67
2023-10-29T23:52:16.437Z,13.62
2023-10-29T23:54:45.704Z,13.70
2023-10-29T23:57:14.171Z,13.62
2023-10-29T23:59:41.697Z,13.73
